createdAt,value
2022-10-17T00:01:07.470Z,58.74
2022-10-17T00:03:36.851Z,58.68
2022-10-17T00:06:07.680Z,58.66
2022-10-17T00:08:36.309Z,58.82
2022-10-17T00:11:06.439Z,58.67
2022-10-17T00:13:35.611Z,58.53
2022-10-17T00:16:03.540Z,58.66
2022-10-17T00:18:32.870Z,58.67
2022-10-17T00:21:00.805Z,58.58
2022-10-17T00:23:30.421Z,58.56
2022-10-17T00:26:02.529Z,58.47
2022-10-17T00:28:30.809Z,58.63
2022-10-17T00:31:00.622Z,58.51
2022-10-17T00:33:29.357Z,58.40
2022-10-17T00:36:13.771Z,58.51
2022-10-17T00:38:42.433Z,58.45
2022-10-17T00:41:12.473Z,58.58
2022-10-17T00:43:59.188Z,58.53
2022-10-17T00:46:29.074Z,58.26
2022-10-17T00:48:58.676Z,58.33
2022-10-17T00:51:34.720Z,58.26
2022-10-17T00:54:04.297Z,58.41
2022-10-17T00:56:33.039Z,58.21
2022-10-17T00:59:01.311Z,58.49
2022-10-17T01:01:29.688Z,58.32
2022-10-17T01:03:57.675Z,58.54
2022-10-17T01:06:25.598Z,58.31
2022-10-17T01:08:55.034Z,58.45
2022-10-17T01:11:37.586Z,58.27
2022-10-17T01:14:10.239Z,58.18
2022-10-17T01:16:45.800Z,58.35
2022-10-17T01:19:36.822Z,58.51
2022-10-17T01:22:10.929Z,58.34
2022-10-17T01:25:08.577Z,58.46
2022-10-17T01:27:53.141Z,58.55
2022-10-17T01:30:38.365Z,58.26
2022-10-17T01:33:14.484Z,58.21
2022-10-17T01:35:48.545Z,58.45
2022-10-17T01:38:21.682Z,58.31
2022-10-17T01:40:54.926Z,58.33
2022-10-17T01:43:27.901Z,58.22
2022-10-17T01:46:02.730Z,58.33
2022-10-17T01:48:36.670Z,58.23
2022-10-17T01:51:10.196Z,58.21
2022-10-17T01:53:42.691Z,58.45
2022-10-17T01:56:14.270Z,58.13
2022-10-17T01:58:47.657Z,58.16
2022-10-17T02:01:19.810Z,58.22
2022-10-17T02:03:49.894Z,58.14
2022-10-17T02:06:17.862Z,58.20
2022-10-17T02:08:51.814Z,58.05
2022-10-17T02:11:22.459Z,58.14
2022-10-17T02:14:15.630Z,58.33
2022-10-17T02:16:52.338Z,58.20
2022-10-17T02:19:41.479Z,58.23
2022-10-17T02:22:21.055Z,58.12
2022-10-17T02:24:53.649Z,58.15
2022-10-17T02:27:34.586Z,57.90
2022-10-17T02:30:10.170Z,58.20
2022-10-17T02:32:46.696Z,58.03
2022-10-17T02:35:20.810Z,58.27
2022-10-17T02:37:50.352Z,57.73
2022-10-17T02:40:22.026Z,57.83
2022-10-17T02:42:51.642Z,58.23
2022-10-17T02:45:20.852Z,58.37
2022-10-17T02:47:56.800Z,58.21
2022-10-17T02:50:30.624Z,58.21
2022-10-17T02:53:06.186Z,58.09
2022-10-17T02:55:37.399Z,58.27
2022-10-17T02:58:09.956Z,58.17
2022-10-17T03:00:39.993Z,58.17
2022-10-17T03:03:21.500Z,58.19
2022-10-17T03:05:52.133Z,58.29
2022-10-17T03:08:20.190Z,58.27
2022-10-17T03:10:48.658Z,58.40
2022-10-17T03:13:17.757Z,58.38
2022-10-17T03:15:45.896Z,58.36
2022-10-17T03:18:16.447Z,58.35
2022-10-17T03:20:44.374Z,58.42
2022-10-17T03:23:13.950Z,58.43
2022-10-17T03:25:41.850Z,58.43
2022-10-17T03:28:12.553Z,58.35
2022-10-17T03:30:40.472Z,58.45
2022-10-17T03:33:08.440Z,58.37
2022-10-17T03:35:40.026Z,58.36
2022-10-17T03:38:08.139Z,58.15
2022-10-17T03:40:37.438Z,58.31
2022-10-17T03:43:11.398Z,58.08
2022-10-17T03:45:39.362Z,58.20
2022-10-17T03:48:07.569Z,58.24
2022-10-17T03:50:35.435Z,58.13
2022-10-17T03:53:03.347Z,58.24
2022-10-17T03:55:31.183Z,58.09
2022-10-17T03:58:00.511Z,58.13
2022-10-17T04:00:28.457Z,58.24
2022-10-17T04:02:56.430Z,58.16
2022-10-17T04:05:24.428Z,58.06
2022-10-17T04:07:52.784Z,58.13
2022-10-17T04:10:20.735Z,58.06
2022-10-17T04:12:48.748Z,58.21
2022-10-17T04:15:18.272Z,58.06
2022-10-17T04:17:48.464Z,58.29
2022-10-17T04:20:16.883Z,58.03
2022-10-17T04:22:44.773Z,57.83
2022-10-17T04:25:12.710Z,57.98
2022-10-17T04:27:40.690Z,58.17
2022-10-17T04:30:09.373Z,57.88
2022-10-17T04:32:39.683Z,58.04
2022-10-17T04:35:12.139Z,57.98
2022-10-17T04:37:40.171Z,58.06
2022-10-17T04:40:09.593Z,57.86
2022-10-17T04:42:37.852Z,57.80
2022-10-17T04:45:06.630Z,58.12
2022-10-17T04:47:34.740Z,57.80
2022-10-17T04:50:04.494Z,57.89
2022-10-17T04:52:32.594Z,58.01
2022-10-17T04:55:00.502Z,58.15
2022-10-17T04:57:28.439Z,57.92
2022-10-17T04:59:56.310Z,58.06
2022-10-17T05:02:24.351Z,57.90
2022-10-17T05:04:52.347Z,58.07
2022-10-17T05:07:24.472Z,57.93
2022-10-17T05:09:52.501Z,57.98
2022-10-17T05:12:20.527Z,57.98
2022-10-17T05:14:48.434Z,58.07
2022-10-17T05:17:16.394Z,57.80
2022-10-17T05:19:44.402Z,57.82
2022-10-17T05:22:12.410Z,57.78
2022-10-17T05:24:41.697Z,57.75
2022-10-17T05:27:09.611Z,57.82
2022-10-17T05:29:37.608Z,57.82
2022-10-17T05:32:06.098Z,57.89
2022-10-17T05:34:34.990Z,57.72
2022-10-17T05:37:02.971Z,58.02
2022-10-17T05:39:30.881Z,57.85
2022-10-17T05:42:00.244Z,57.82
2022-10-17T05:44:28.351Z,57.79
2022-10-17T05:46:56.232Z,57.93
2022-10-17T05:49:33.397Z,57.89
2022-10-17T05:52:11.868Z,57.88
2022-10-17T05:54:39.839Z,57.83
2022-10-17T05:57:09.189Z,58.12
2022-10-17T05:59:37.190Z,58.09
2022-10-17T06:02:07.798Z,58.14
2022-10-17T06:04:36.171Z,57.92
2022-10-17T06:07:04.139Z,57.93
2022-10-17T06:09:32.221Z,58.15
2022-10-17T06:12:00.143Z,58.09
2022-10-17T06:14:29.397Z,58.12
2022-10-17T06:16:57.370Z,58.12
2022-10-17T06:19:25.292Z,57.90
2022-10-17T06:21:53.206Z,58.14
2022-10-17T06:24:21.176Z,57.93
2022-10-17T06:26:49.940Z,58.01
2022-10-17T06:29:21.338Z,58.07
2022-10-17T06:31:50.694Z,58.30
2022-10-17T06:34:18.847Z,58.25
2022-10-17T06:36:46.816Z,58.00
2022-10-17T06:39:14.916Z,58.21
2022-10-17T06:41:44.516Z,58.02
2022-10-17T06:44:12.511Z,57.61
2022-10-17T06:46:41.312Z,57.77
2022-10-17T06:49:11.635Z,58.33
2022-10-17T06:51:40.128Z,58.40
2022-10-17T06:54:08.048Z,58.77
2022-10-17T06:56:36.247Z,58.69
2022-10-17T06:59:04.189Z,58.71
2022-10-17T07:01:34.284Z,58.85
2022-10-17T07:04:02.515Z,58.97
2022-10-17T07:06:32.687Z,58.92
2022-10-17T07:09:02.715Z,58.81
2022-10-17T07:11:30.717Z,58.79
2022-10-17T07:13:58.587Z,58.70
2022-10-17T07:16:26.561Z,58.99
2022-10-17T07:18:55.312Z,58.89
2022-10-17T07:21:23.312Z,58.83
2022-10-17T07:23:53.070Z,58.84
2022-10-17T07:26:21.456Z,59.03
2022-10-17T07:28:53.902Z,58.74
2022-10-17T07:31:23.471Z,58.29
2022-10-17T07:33:51.958Z,58.31
2022-10-17T07:36:20.286Z,58.52
2022-10-17T07:38:48.232Z,58.58
2022-10-17T07:41:21.652Z,58.88
2022-10-17T07:43:49.970Z,59.14
2022-10-17T07:46:18.282Z,59.27
2022-10-17T07:48:46.243Z,59.13
2022-10-17T07:51:14.486Z,59.21
2022-10-17T07:53:46.400Z,59.29
2022-10-17T07:56:18.132Z,59.27
2022-10-17T07:58:46.223Z,59.45
2022-10-17T08:01:15.633Z,59.52
2022-10-17T08:03:45.658Z,59.46
2022-10-17T08:06:14.297Z,59.56
2022-10-17T08:08:42.531Z,59.90
2022-10-17T08:11:14.059Z,60.15
2022-10-17T08:13:43.729Z,60.35
2022-10-17T08:16:14.846Z,60.59
2022-10-17T08:18:44.146Z,60.65
2022-10-17T08:21:14.210Z,60.59
2022-10-17T08:23:42.418Z,61.15
2022-10-17T08:26:13.449Z,61.02
2022-10-17T08:28:45.456Z,61.15
2022-10-17T08:31:14.771Z,61.24
2022-10-17T08:33:43.457Z,61.15
2022-10-17T08:36:13.670Z,61.30
2022-10-17T08:38:43.689Z,61.35
2022-10-17T08:41:22.465Z,61.22
2022-10-17T08:44:03.311Z,61.20
2022-10-17T08:46:33.655Z,61.42
2022-10-17T08:49:04.142Z,61.47
2022-10-17T08:51:37.978Z,61.56
2022-10-17T08:54:14.120Z,61.79
2022-10-17T08:56:49.546Z,61.82
2022-10-17T08:59:29.283Z,61.79
2022-10-17T09:02:03.985Z,62.16
2022-10-17T09:04:57.465Z,62.13
2022-10-17T09:07:32.793Z,62.29
2022-10-17T09:10:11.635Z,62.17
2022-10-17T09:12:44.998Z,62.21
2022-10-17T09:15:38.670Z,62.18
2022-10-17T09:18:12.202Z,62.43
2022-10-17T09:20:45.870Z,62.25
2022-10-17T09:23:18.619Z,62.42
2022-10-17T09:25:49.607Z,62.29
2022-10-17T09:28:22.891Z,62.63
2022-10-17T09:30:57.346Z,62.86
2022-10-17T09:33:35.058Z,62.89
2022-10-17T09:36:06.473Z,62.77
2022-10-17T09:38:40.658Z,62.78
2022-10-17T09:41:43.132Z,61.20
2022-10-17T09:44:16.155Z,60.22
2022-10-17T09:47:07.161Z,60.77
2022-10-17T09:49:39.363Z,61.18
2022-10-17T09:52:12.334Z,61.36
2022-10-17T09:54:46.273Z,61.64
2022-10-17T09:57:15.661Z,62.04
2022-10-17T09:59:46.634Z,62.17
2022-10-17T10:02:22.544Z,62.03
2022-10-17T10:05:03.762Z,62.00
2022-10-17T10:07:34.775Z,62.17
2022-10-17T10:10:04.891Z,62.01
2022-10-17T10:12:37.915Z,61.94
2022-10-17T10:15:33.851Z,61.89
2022-10-17T10:18:03.404Z,61.70
2022-10-17T10:20:35.060Z,61.74
2022-10-17T10:23:14.922Z,61.87
2022-10-17T10:25:57.458Z,61.83
2022-10-17T10:28:29.193Z,61.52
2022-10-17T10:30:58.502Z,61.60
2022-10-17T10:33:30.338Z,61.62
2022-10-17T10:36:01.215Z,61.79
2022-10-17T10:38:30.298Z,61.74
2022-10-17T10:41:03.925Z,61.76
2022-10-17T10:43:36.518Z,61.74
2022-10-17T10:46:20.175Z,61.70
2022-10-17T10:48:56.539Z,61.76
2022-10-17T10:51:30.355Z,61.85
2022-10-17T10:54:07.645Z,62.08
2022-10-17T10:56:38.950Z,61.88
2022-10-17T10:59:15.523Z,61.79
2022-10-17T11:01:51.796Z,61.77
2022-10-17T11:04:28.417Z,61.91
2022-10-17T11:07:02.007Z,61.86
2022-10-17T11:09:47.501Z,61.95
2022-10-17T11:12:21.803Z,61.89
2022-10-17T11:14:57.714Z,61.95
2022-10-17T11:17:33.764Z,61.76
2022-10-17T11:20:15.128Z,62.17
2022-10-17T11:22:47.714Z,61.89
2022-10-17T11:25:29.474Z,62.35
2022-10-17T11:28:00.953Z,62.14
2022-10-17T11:33:18.942Z,62.07
2022-10-17T11:35:52.559Z,62.19
2022-10-17T11:38:26.466Z,62.15
2022-10-17T11:40:58.263Z,61.12
2022-10-17T11:43:31.887Z,60.73
2022-10-17T11:46:06.657Z,61.12
2022-10-17T11:48:40.771Z,61.45
2022-10-17T11:54:12.342Z,62.41
2022-10-17T11:56:46.422Z,62.60
2022-10-17T11:59:47.117Z,62.90
2022-10-17T12:02:27.100Z,62.87
2022-10-17T12:05:05.044Z,62.88
2022-10-17T12:07:47.518Z,62.99
2022-10-17T12:10:26.463Z,62.87
2022-10-17T12:12:54.414Z,62.94
2022-10-17T12:15:30.530Z,63.13
2022-10-17T12:18:02.478Z,62.96
2022-10-17T12:20:36.009Z,63.01
2022-10-17T12:23:23.369Z,63.02
2022-10-17T12:25:55.905Z,63.50
2022-10-17T12:28:30.613Z,63.01
2022-10-17T12:31:03.480Z,63.16
2022-10-17T12:33:35.064Z,62.97
2022-10-17T12:36:46.799Z,63.28
2022-10-17T12:39:52.410Z,63.45
2022-10-17T12:42:52.186Z,63.56
2022-10-17T12:45:48.129Z,63.36
2022-10-17T12:48:49.096Z,63.42
2022-10-17T12:51:35.254Z,63.56
2022-10-17T12:54:13.549Z,63.49
2022-10-17T12:56:44.011Z,63.38
2022-10-17T12:59:18.527Z,63.63
2022-10-17T13:01:49.737Z,63.44
2022-10-17T13:04:18.886Z,63.69
2022-10-17T13:06:49.365Z,63.78
2022-10-17T13:09:24.732Z,63.73
2022-10-17T13:11:53.002Z,63.80
2022-10-17T13:14:24.192Z,64.09
2022-10-17T13:16:54.901Z,63.94
2022-10-17T13:19:25.218Z,64.15
2022-10-17T13:21:56.229Z,63.76
2022-10-17T13:24:30.253Z,63.87
2022-10-17T13:26:58.842Z,64.11
2022-10-17T13:29:29.733Z,64.22
2022-10-17T13:32:04.078Z,64.20
2022-10-17T13:34:33.956Z,64.17
2022-10-17T13:37:04.060Z,64.10
2022-10-17T13:39:54.507Z,64.23
2022-10-17T13:42:27.337Z,64.73
2022-10-17T13:44:57.070Z,64.66
2022-10-17T13:47:27.511Z,63.97
2022-10-17T13:49:57.472Z,64.35
2022-10-17T13:52:29.614Z,64.81
2022-10-17T13:55:11.088Z,64.76
2022-10-17T13:57:40.304Z,64.49
2022-10-17T14:00:20.548Z,64.48
2022-10-17T14:02:49.397Z,64.33
2022-10-17T14:05:20.315Z,64.48
2022-10-17T14:10:43.393Z,64.23
2022-10-17T14:13:22.101Z,64.47
2022-10-17T14:15:52.598Z,64.77
2022-10-17T14:18:22.845Z,64.74
2022-10-17T14:23:41.804Z,64.97
2022-10-17T14:26:14.779Z,64.84
2022-10-17T14:28:45.544Z,64.98
2022-10-17T14:31:22.244Z,65.18
2022-10-17T14:33:55.435Z,64.96
2022-10-17T14:36:36.256Z,65.33
2022-10-17T14:39:09.556Z,65.33
2022-10-17T14:41:44.503Z,65.22
2022-10-17T14:44:24.339Z,65.69
2022-10-17T14:46:57.849Z,65.63
2022-10-17T14:49:34.823Z,65.65
2022-10-17T14:52:31.290Z,65.77
2022-10-17T14:55:01.875Z,65.90
2022-10-17T14:57:44.004Z,66.11
2022-10-17T15:00:16.046Z,66.39
2022-10-17T15:02:46.497Z,66.33
2022-10-17T15:05:15.352Z,65.93
2022-10-17T15:07:44.113Z,66.45
2022-10-17T15:10:26.441Z,66.21
2022-10-17T15:12:59.233Z,66.60
2022-10-17T15:15:39.231Z,66.36
2022-10-17T15:18:11.293Z,66.62
2022-10-17T15:20:39.852Z,66.98
2022-10-17T15:23:09.867Z,66.59
2022-10-17T15:25:37.947Z,66.81
2022-10-17T15:28:05.875Z,67.06
2022-10-17T15:30:37.037Z,66.88
2022-10-17T15:33:05.317Z,66.91
2022-10-17T15:35:34.541Z,66.71
2022-10-17T15:38:02.563Z,66.97
2022-10-17T15:40:31.540Z,67.09
2022-10-17T15:42:59.454Z,66.82
2022-10-17T15:45:27.532Z,67.07
2022-10-17T15:47:59.176Z,67.34
2022-10-17T15:50:29.054Z,66.88
2022-10-17T15:52:58.376Z,66.81
2022-10-17T15:55:26.391Z,66.82
2022-10-17T15:57:54.371Z,67.24
2022-10-17T16:00:24.850Z,67.23
2022-10-17T16:02:53.023Z,67.15
2022-10-17T16:05:23.683Z,67.33
2022-10-17T16:07:51.634Z,67.19
2022-10-17T16:10:21.893Z,67.62
2022-10-17T16:12:52.677Z,67.44
2022-10-17T16:15:23.579Z,67.46
2022-10-17T16:17:52.347Z,67.26
2022-10-17T16:20:21.379Z,67.29
2022-10-17T16:22:50.368Z,67.51
2022-10-17T16:25:22.487Z,67.65
2022-10-17T16:27:55.585Z,67.71
2022-10-17T16:30:25.131Z,67.64
2022-10-17T16:32:53.975Z,67.45
2022-10-17T16:35:24.174Z,67.58
2022-10-17T16:37:52.180Z,67.38
2022-10-17T16:40:21.526Z,67.38
2022-10-17T16:42:49.416Z,67.47
2022-10-17T16:45:19.235Z,67.30
2022-10-17T16:47:47.327Z,67.85
2022-10-17T16:50:15.456Z,67.59
2022-10-17T16:52:43.810Z,67.56
2022-10-17T16:55:12.058Z,67.66
2022-10-17T16:57:41.354Z,67.26
2022-10-17T17:00:11.944Z,67.28
2022-10-17T17:02:39.928Z,67.20
2022-10-17T17:05:09.032Z,67.21
2022-10-17T17:07:37.037Z,67.19
2022-10-17T17:10:06.877Z,67.33
2022-10-17T17:12:35.087Z,67.02
2022-10-17T17:15:05.078Z,67.02
2022-10-17T17:17:48.729Z,67.20
2022-10-17T17:20:19.336Z,66.37
2022-10-17T17:22:47.246Z,63.39
2022-10-17T17:25:15.285Z,65.11
2022-10-17T17:27:43.189Z,66.02
2022-10-17T17:30:13.029Z,66.38
2022-10-17T17:32:41.086Z,66.78
2022-10-17T17:35:09.822Z,67.05
2022-10-17T17:37:37.802Z,68.00
2022-10-17T17:40:07.000Z,68.75
2022-10-17T17:42:34.908Z,68.91
2022-10-17T17:45:03.247Z,69.21
2022-10-17T17:47:34.840Z,70.09
2022-10-17T17:50:05.512Z,69.64
2022-10-17T17:52:33.607Z,69.84
2022-10-17T17:55:01.584Z,69.87
2022-10-17T17:57:30.466Z,69.90
2022-10-17T17:59:58.552Z,69.54
2022-10-17T18:02:26.554Z,68.80
2022-10-17T18:04:55.913Z,68.95
2022-10-17T18:07:23.952Z,68.59
2022-10-17T18:09:51.986Z,67.48
2022-10-17T18:12:19.990Z,67.71
2022-10-17T18:14:48.980Z,67.93
2022-10-17T18:17:19.366Z,67.93
2022-10-17T18:19:47.322Z,67.88
2022-10-17T18:22:16.629Z,67.80
2022-10-17T18:24:44.637Z,67.87
2022-10-17T18:27:15.870Z,67.89
2022-10-17T18:29:45.811Z,67.72
2022-10-17T18:32:14.053Z,67.80
2022-10-17T18:34:44.281Z,67.76
2022-10-17T18:37:12.616Z,67.38
2022-10-17T18:39:41.894Z,67.78
2022-10-17T18:42:11.360Z,67.65
2022-10-17T18:44:39.399Z,67.91
2022-10-17T18:47:10.756Z,67.53
2022-10-17T18:49:38.689Z,67.56
2022-10-17T18:52:06.696Z,67.49
2022-10-17T18:54:34.807Z,67.65
2022-10-17T18:57:04.289Z,67.53
2022-10-17T18:59:32.451Z,67.41
2022-10-17T19:02:00.441Z,67.23
2022-10-17T19:04:28.792Z,67.18
2022-10-17T19:06:59.291Z,67.13
2022-10-17T19:09:27.335Z,67.39
2022-10-17T19:11:56.434Z,67.07
2022-10-17T19:14:26.405Z,67.32
2022-10-17T19:16:54.359Z,67.35
2022-10-17T19:19:23.830Z,67.15
2022-10-17T19:21:52.947Z,66.92
2022-10-17T19:24:22.550Z,67.15
2022-10-17T19:26:53.432Z,66.97
2022-10-17T19:29:23.001Z,67.14
2022-10-17T19:31:53.145Z,66.95
2022-10-17T19:34:21.325Z,66.91
2022-10-17T19:36:49.260Z,66.98
2022-10-17T19:39:20.811Z,67.16
2022-10-17T19:41:49.675Z,67.10
2022-10-17T19:44:18.089Z,67.45
2022-10-17T19:46:47.063Z,67.72
2022-10-17T19:49:16.827Z,67.64
2022-10-17T19:51:44.756Z,67.17
2022-10-17T19:54:12.937Z,67.12
2022-10-17T19:56:43.419Z,67.29
2022-10-17T19:59:13.401Z,67.23
2022-10-17T20:01:41.743Z,66.90
2022-10-17T20:04:11.062Z,67.10
2022-10-17T20:06:41.292Z,67.32
2022-10-17T20:09:13.897Z,66.90
2022-10-17T20:11:44.863Z,66.96
2022-10-17T20:14:12.714Z,66.92
2022-10-17T20:16:40.661Z,66.97
2022-10-17T20:19:11.082Z,67.06
2022-10-17T20:21:40.825Z,67.06
2022-10-17T20:24:13.165Z,67.10
2022-10-17T20:26:41.316Z,66.96
2022-10-17T20:29:17.029Z,66.78
2022-10-17T20:31:46.323Z,66.79
2022-10-17T20:34:16.245Z,66.74
2022-10-17T20:36:45.604Z,66.69
2022-10-17T20:39:15.515Z,66.86
2022-10-17T20:41:44.408Z,66.72
2022-10-17T20:44:12.929Z,65.89
2022-10-17T20:46:48.770Z,66.16
2022-10-17T20:49:28.467Z,66.30
2022-10-17T20:51:57.988Z,66.49
2022-10-17T20:54:27.737Z,66.44
2022-10-17T20:56:58.651Z,66.26
2022-10-17T20:59:29.374Z,66.08
2022-10-17T21:01:57.363Z,65.92
2022-10-17T21:04:45.357Z,66.01
2022-10-17T21:07:14.683Z,66.17
2022-10-17T21:09:42.719Z,65.97
2022-10-17T21:12:10.693Z,66.17
2022-10-17T21:14:38.706Z,65.89
2022-10-17T21:17:06.763Z,65.95
2022-10-17T21:19:34.848Z,66.04
2022-10-17T21:22:02.751Z,65.86
2022-10-17T21:24:34.527Z,65.78
2022-10-17T21:27:02.537Z,65.65
2022-10-17T21:29:30.431Z,65.89
2022-10-17T21:31:58.469Z,65.54
2022-10-17T21:34:26.332Z,65.85
2022-10-17T21:36:54.373Z,65.65
2022-10-17T21:39:24.718Z,65.59
2022-10-17T21:41:55.012Z,65.63
2022-10-17T21:44:24.790Z,65.46
2022-10-17T21:46:53.484Z,65.60
2022-10-17T21:49:22.784Z,65.42
2022-10-17T21:51:51.722Z,65.48
2022-10-17T21:54:21.480Z,65.79
2022-10-17T21:56:49.634Z,65.78
2022-10-17T21:59:19.170Z,65.95
2022-10-17T22:01:47.462Z,66.07
2022-10-17T22:04:16.625Z,66.19
2022-10-17T22:06:46.426Z,66.33
2022-10-17T22:09:16.742Z,66.06
2022-10-17T22:11:46.818Z,66.27
2022-10-17T22:14:16.943Z,66.42
2022-10-17T22:16:47.912Z,66.48
2022-10-17T22:19:18.930Z,66.29
2022-10-17T22:21:47.071Z,66.40
2022-10-17T22:24:18.673Z,66.53
2022-10-17T22:26:47.301Z,66.39
2022-10-17T22:29:15.511Z,66.10
2022-10-17T22:31:43.520Z,65.97
2022-10-17T22:34:14.688Z,66.14
2022-10-17T22:36:43.255Z,65.97
2022-10-17T22:39:12.197Z,66.13
2022-10-17T22:41:40.253Z,65.84
2022-10-17T22:44:08.241Z,65.68
2022-10-17T22:46:36.395Z,65.96
2022-10-17T22:49:04.661Z,65.81
2022-10-17T22:51:33.915Z,65.57
2022-10-17T22:54:01.861Z,65.44
2022-10-17T22:56:29.708Z,65.48
2022-10-17T22:58:57.741Z,65.43
2022-10-17T23:01:26.898Z,65.56
2022-10-17T23:03:55.272Z,65.30
2022-10-17T23:06:23.243Z,65.38
2022-10-17T23:08:53.272Z,65.30
2022-10-17T23:11:21.870Z,65.19
2022-10-17T23:13:51.243Z,65.20
2022-10-17T23:16:19.170Z,65.15
2022-10-17T23:18:47.060Z,65.15
2022-10-17T23:21:14.982Z,64.95
2022-10-17T23:23:42.910Z,64.96
2022-10-17T23:26:14.026Z,65.08
2022-10-17T23:28:43.405Z,64.70
2022-10-17T23:31:13.308Z,65.14
2022-10-17T23:33:41.548Z,65.02
2022-10-17T23:36:10.800Z,64.91
2022-10-17T23:38:43.010Z,64.73
2022-10-17T23:41:14.912Z,64.98
2022-10-17T23:43:43.251Z,64.77
2022-10-17T23:46:11.690Z,64.70
2022-10-17T23:48:42.773Z,64.83
2022-10-17T23:51:11.622Z,64.62
2022-10-17T23:53:40.478Z,64.76
2022-10-17T23:56:10.050Z,64.63
2022-10-17T23:58:39.854Z,64.76
